Time;durP1;ratioP1;P1;durP2;ratioP2;P2;SDS_P1;SDS_P2;PMS_P1;PMS_P2;Temp;Humidity;BMP_temperature;BMP_pressure;BME280_temperature;BME280_humidity;BME280_pressure;Samples;Min_cycle;Max_cycle;Signal;HPM_P1;HPM_P2
2024/01/26 00:01:26;;;;;;;25.70;14.53;;;9.40;99.90;;;;;;814020;174;26464;-81
2024/01/26 00:03:57;;;;;;;23.87;12.53;;;9.40;99.90;;;;;;813155;175;26399;-82
2024/01/26 00:06:35;;;;;;;26.37;13.10;;;9.40;99.90;;;;;;815311;175;27030;-82
2024/01/26 00:09:10;;;;;;;29.00;14.93;;;9.40;99.90;;;;;;789211;173;26543;-80
2024/01/26 00:11:49;;;;;;;30.13;15.10;;;9.40;99.90;;;;;;787984;180;27003;-81
2024/01/26 00:14:21;;;;;;;25.70;14.40;;;9.40;99.90;;;;;;788250;179;26471;-81
2024/01/26 00:16:50;;;;;;;31.77;15.93;;;9.40;99.90;;;;;;779598;182;26465;-80
2024/01/26 00:19:37;;;;;;;39.97;16.17;;;9.40;99.90;;;;;;775840;185;27067;-80
2024/01/26 00:22:06;;;;;;;30.07;15.90;;;9.40;99.90;;;;;;788933;181;26491;-80
2024/01/26 00:30:12;;;;;;;34.70;16.90;;;9.50;99.90;;;;;;778723;183;26705;-80
2024/01/26 00:32:56;;;;;;;;;;;;;;;;;;;;;
2024/01/26 00:35:40;;;;;;;39.17;20.93;;;9.50;99.90;;;;;;792080;180;26453;-82
2024/01/26 00:38:32;;;;;;;36.57;19.00;;;9.50;99.90;;;;;;780831;184;26498;-77
2024/01/26 00:41:13;;;;;;;31.30;18.63;;;9.50;99.90;;;;;;775720;185;26609;-80
2024/01/26 00:43:52;;;;;;;;;;;;;;;;;;;;;
2024/01/26 00:46:31;;;;;;;31.03;16.57;;;9.60;99.90;;;;;;779202;182;26621;-83
2024/01/26 00:49:03;;;;;;;30.10;14.30;;;9.60;99.90;;;;;;771069;184;26494;-79
2024/01/26 00:51:44;;;;;;;22.40;13.50;;;9.60;99.90;;;;;;785830;180;26611;-80
2024/01/26 00:54:33;;;;;;;;;;;;;;;;;;;;;
2024/01/26 00:57:08;;;;;;;28.40;15.37;;;9.60;99.90;;;;;;773600;183;26527;-83
2024/01/26 00:59:39;;;;;;;24.47;13.83;;;9.60;99.90;;;;;;774417;185;26491;-81
2024/01/26 01:02:24;;;;;;;28.00;13.70;;;9.70;99.90;;;;;;779792;184;26504;-82
2024/01/26 01:05:21;;;;;;;30.10;14.20;;;9.70;99.90;;;;;;781576;183;26496;-83
2024/01/26 01:08:00;;;;;;;29.27;12.60;;;9.70;99.90;;;;;;791004;180;26689;-84
2024/01/26 01:10:40;;;;;;;20.67;12.20;;;9.70;99.90;;;;;;792006;181;26480;-83
2024/01/26 01:13:26;;;;;;;23.47;13.17;;;9.70;99.90;;;;;;780207;180;26478;-80
2024/01/26 01:16:07;;;;;;;23.30;12.27;;;9.70;99.90;;;;;;787049;180;26479;-82
2024/01/26 01:18:37;;;;;;;25.57;12.10;;;9.80;99.90;;;;;;779479;184;26556;-83
2024/01/26 01:21:22;;;;;;;;;;;;;;;;;;;;;
2024/01/26 01:24:05;;;;;;;25.60;13.07;;;9.80;99.90;;;;;;776942;182;26488;-85
2024/01/26 01:26:39;;;;;;;22.67;11.97;;;9.80;99.90;;;;;;779961;176;26474;-84
2024/01/26 01:29:20;;;;;;;24.53;13.10;;;9.80;99.90;;;;;;779915;177;26633;-85
2024/01/26 01:32:05;;;;;;;23.43;12.87;;;9.80;99.90;;;;;;782399;180;26511;-82
2024/01/26 01:34:47;;;;;;;24.97;12.63;;;9.80;99.90;;;;;;781022;178;26483;-85
2024/01/26 01:37:21;;;;;;;22.77;11.47;;;9.90;99.90;;;;;;781254;176;26637;-86
2024/01/26 01:39:55;;;;;;;37.77;19.07;;;9.90;99.90;;;;;;789418;174;26466;-86
2024/01/26 01:42:32;;;;;;;47.17;22.37;;;9.90;99.90;;;;;;784690;170;26445;-83
2024/01/26 01:45:14;;;;;;;35.10;15.33;;;9.90;99.90;;;;;;790653;181;26455;-80
2024/01/26 01:47:45;;;;;;;23.97;11.40;;;9.90;99.90;;;;;;787105;181;26491;-80
2024/01/26 01:50:21;;;;;;;19.97;11.43;;;9.90;99.90;;;;;;785854;177;26662;-83
2024/01/26 01:52:56;;;;;;;19.13;11.77;;;10.00;99.90;;;;;;787391;182;26448;-81
2024/01/26 01:58:18;;;;;;;22.40;11.67;;;10.00;99.90;;;;;;791432;181;26557;-80
2024/01/26 02:00:52;;;;;;;20.30;12.30;;;10.00;99.90;;;;;;774120;184;26481;-78
2024/01/26 02:03:33;;;;;;;18.67;11.90;;;10.00;99.90;;;;;;778380;184;27088;-80
2024/01/26 02:06:26;;;;;;;25.83;13.10;;;10.00;99.90;;;;;;777000;184;26624;-77
2024/01/26 02:09:02;;;;;;;28.50;14.13;;;10.00;99.90;;;;;;779070;184;26531;-80
2024/01/26 02:11:46;;;;;;;43.57;19.70;;;10.00;99.90;;;;;;774096;185;26512;-82
2024/01/26 02:14:27;;;;;;;65.83;27.87;;;10.00;99.90;;;;;;762400;185;26713;-81
2024/01/26 02:17:11;;;;;;;67.20;28.13;;;10.00;99.90;;;;;;752837;186;26504;-82
2024/01/26 02:19:46;;;;;;;78.67;34.60;;;10.00;99.90;;;;;;786124;181;26471;-80
2024/01/26 02:22:28;;;;;;;37.20;20.77;;;10.00;99.90;;;;;;788370;181;26548;-81
2024/01/26 02:30:34;;;;;;;25.90;12.63;;;10.10;99.90;;;;;;725340;174;27697;-81
2024/01/26 02:33:11;;;;;;;21.77;11.40;;;10.20;99.90;;;;;;790475;179;27009;-79
2024/01/26 02:41:07;;;;;;;19.70;11.57;;;10.20;99.90;;;;;;775553;181;26452;-81
2024/01/26 02:46:17;;;;;;;21.50;12.00;;;10.20;99.90;;;;;;773315;184;26655;-80
2024/01/26 02:51:46;;;;;;;36.57;17.50;;;10.30;99.90;;;;;;802754;178;26451;-82
2024/01/26 02:54:24;;;;;;;25.73;15.27;;;10.40;99.90;;;;;;793207;181;26481;-81
2024/01/26 02:59:44;;;;;;;19.60;12.30;;;10.40;99.90;;;;;;775056;183;26499;-83
2024/01/26 03:02:24;;;;;;;24.50;14.07;;;10.40;99.90;;;;;;775014;184;26479;-81
2024/01/26 03:04:57;;;;;;;20.97;11.87;;;10.40;99.90;;;;;;770131;184;26647;-79
2024/01/26 03:07:37;;;;;;;20.60;12.20;;;10.40;99.90;;;;;;796773;174;26485;-80
2024/01/26 03:13:06;;;;;;;22.53;12.53;;;10.40;99.90;;;;;;781842;183;26469;-80
2024/01/26 03:15:38;;;;;;;20.67;12.20;;;10.40;99.90;;;;;;776150;183;26655;-83
2024/01/26 03:18:23;;;;;;;;;;;;;;;;;;;;;
2024/01/26 03:21:07;;;;;;;30.67;15.30;;;10.40;99.90;;;;;;785762;181;26637;-80
2024/01/26 03:23:50;;;;;;;21.97;13.17;;;10.40;99.90;;;;;;783525;181;26440;-79
2024/01/26 03:26:37;;;;;;;20.33;11.73;;;10.40;99.90;;;;;;796605;176;26592;-78
2024/01/26 03:29:15;;;;;;;21.53;13.33;;;10.40;99.90;;;;;;780944;178;26504;-85
2024/01/26 03:31:47;;;;;;;17.83;10.60;;;10.40;99.90;;;;;;781167;182;26460;-83
2024/01/26 03:34:29;;;;;;;17.73;10.63;;;10.40;99.90;;;;;;787964;181;26581;-81
2024/01/26 03:37:04;;;;;;;19.57;10.73;;;10.40;99.90;;;;;;805931;178;26471;-81
2024/01/26 03:39:34;;;;;;;21.67;10.80;;;10.50;99.90;;;;;;803588;178;26470;-80
2024/01/26 03:42:10;;;;;;;17.10;10.67;;;10.50;99.90;;;;;;789655;181;26513;-81
2024/01/26 03:44:47;;;;;;;16.33;9.57;;;10.50;99.90;;;;;;795035;180;26996;-80
2024/01/26 03:47:21;;;;;;;16.07;10.00;;;10.50;99.90;;;;;;801133;177;27005;-81
2024/01/26 03:49:54;;;;;;;17.03;10.57;;;10.50;99.90;;;;;;785803;179;26458;-81
2024/01/26 03:52:28;;;;;;;16.70;10.73;;;10.40;99.90;;;;;;799142;177;26589;-80
2024/01/26 03:55:22;;;;;;;16.47;9.73;;;10.40;99.90;;;;;;791696;179;26424;-80
2024/01/26 03:57:53;;;;;;;14.97;9.47;;;10.40;99.90;;;;;;783857;181;26448;-80
2024/01/26 04:00:28;;;;;;;19.50;11.03;;;10.50;99.90;;;;;;791374;177;26957;-79
2024/01/26 04:02:58;;;;;;;19.43;10.73;;;10.50;99.90;;;;;;789139;181;27055;-79
2024/01/26 04:05:32;;;;;;;16.37;9.27;;;10.50;99.90;;;;;;787064;180;26535;-80
2024/01/26 04:08:05;;;;;;;14.40;9.77;;;10.50;99.90;;;;;;780223;178;26494;-78
2024/01/26 04:10:41;;;;;;;19.50;9.73;;;10.40;99.90;;;;;;786372;179;26463;-81
2024/01/26 04:13:16;;;;;;;17.00;10.63;;;10.40;99.90;;;;;;790568;179;26546;-78
2024/01/26 04:18:22;;;;;;;17.87;10.53;;;10.40;99.90;;;;;;788566;180;26464;-81
2024/01/26 04:21:11;;;;;;;17.03;10.30;;;10.40;99.90;;;;;;790007;178;27071;-81
2024/01/26 04:24:00;;;;;;;16.97;10.47;;;10.40;99.90;;;;;;790832;180;26453;-81
2024/01/26 04:26:35;;;;;;;20.13;10.30;;;10.40;99.90;;;;;;784176;181;26587;-80
2024/01/26 04:29:16;;;;;;;17.83;10.53;;;10.30;99.90;;;;;;783135;180;26512;-80
2024/01/26 04:31:50;;;;;;;17.27;9.90;;;10.30;99.90;;;;;;788635;180;26435;-80
2024/01/26 04:37:12;;;;;;;15.70;9.33;;;10.30;99.90;;;;;;801651;177;27872;-77
2024/01/26 04:39:47;;;;;;;17.93;9.43;;;10.30;99.90;;;;;;801734;177;27015;-76
2024/01/26 04:42:25;;;;;;;18.33;9.53;;;10.20;99.90;;;;;;802089;176;26511;-78
2024/01/26 04:44:55;;;;;;;14.63;9.20;;;10.20;99.90;;;;;;800968;176;26440;-76
2024/01/26 04:47:29;;;;;;;19.83;10.20;;;10.10;99.90;;;;;;796405;175;26443;-80
2024/01/26 04:50:02;;;;;;;19.77;9.57;;;10.10;99.90;;;;;;799908;177;26490;-80
2024/01/26 04:52:52;;;;;;;16.23;10.10;;;10.00;99.90;;;;;;803036;177;26425;-78
2024/01/26 04:55:23;;;;;;;19.53;10.20;;;9.90;99.90;;;;;;802748;177;26426;-80
2024/01/26 04:58:00;;;;;;;23.67;11.00;;;9.80;99.90;;;;;;790121;180;26473;-80
2024/01/26 05:00:35;;;;;;;21.50;10.83;;;9.80;99.90;;;;;;802925;176;26452;-82
2024/01/26 05:03:28;;;;;;;17.63;9.63;;;9.80;99.90;;;;;;804000;176;26452;-81
2024/01/26 05:06:02;;;;;;;18.33;12.13;;;9.80;99.90;;;;;;796908;176;26431;-82
2024/01/26 05:08:29;;;;;;;24.23;10.03;;;9.80;99.90;;;;;;791551;174;26653;-78
2024/01/26 05:10:55;;;;;;;16.00;9.77;;;9.80;99.90;;;;;;780377;183;26487;-80
2024/01/26 05:13:22;;;;;;;22.90;11.40;;;9.80;99.90;;;;;;785195;180;26495;-76
2024/01/26 05:15:49;;;;;;;17.10;10.23;;;9.80;99.90;;;;;;774402;184;26504;-78
2024/01/26 05:18:15;;;;;;;26.37;11.93;;;9.80;99.90;;;;;;764757;184;26588;-79
2024/01/26 05:20:42;;;;;;;27.97;10.93;;;9.80;99.90;;;;;;771054;184;26519;-80
2024/01/26 05:23:08;;;;;;;23.20;10.57;;;9.70;99.90;;;;;;767369;184;26753;-80
2024/01/26 05:25:35;;;;;;;17.30;10.30;;;9.70;99.90;;;;;;760598;186;26489;-76
2024/01/26 05:28:02;;;;;;;19.60;10.77;;;9.70;99.90;;;;;;764593;185;26519;-80
2024/01/26 05:30:28;;;;;;;19.90;11.30;;;9.70;99.90;;;;;;768578;184;26512;-80
2024/01/26 05:32:55;;;;;;;18.73;11.07;;;9.60;99.90;;;;;;764822;184;26550;-80
2024/01/26 05:35:21;;;;;;;22.60;11.40;;;9.50;99.90;;;;;;763279;187;26506;-79
2024/01/26 05:37:48;;;;;;;26.90;11.53;;;9.50;99.90;;;;;;761836;188;26638;-79
2024/01/26 05:40:15;;;;;;;20.63;10.17;;;9.40;99.90;;;;;;762673;185;26538;-79
2024/01/26 05:42:41;;;;;;;21.27;10.10;;;9.40;99.90;;;;;;774097;184;26503;-81
2024/01/26 05:45:08;;;;;;;25.37;11.57;;;9.40;99.90;;;;;;764249;185;26681;-80
2024/01/26 05:47:35;;;;;;;19.33;9.90;;;9.40;99.90;;;;;;766690;185;26520;-81
2024/01/26 05:50:02;;;;;;;15.83;7.53;;;9.40;99.90;;;;;;765702;184;27031;-78
2024/01/26 05:52:28;;;;;;;13.40;6.50;;;9.50;99.90;;;;;;760611;185;26625;-78
2024/01/26 05:54:55;;;;;;;7.73;5.40;;;9.80;99.90;;;;;;772736;185;26479;-79
2024/01/26 05:57:22;;;;;;;13.07;6.07;;;9.90;99.90;;;;;;774970;184;26584;-79
2024/01/26 05:59:49;;;;;;;8.00;5.57;;;10.00;99.90;;;;;;766184;184;26532;-80
2024/01/26 06:02:15;;;;;;;9.37;5.63;;;10.00;99.90;;;;;;769147;184;26620;-76
2024/01/26 06:04:42;;;;;;;15.93;6.63;;;10.00;99.90;;;;;;772413;185;26508;-81
2024/01/26 06:07:08;;;;;;;14.03;5.23;;;10.00;99.90;;;;;;763976;184;26497;-79
2024/01/26 06:09:35;;;;;;;15.20;5.67;;;10.10;99.90;;;;;;761984;184;26480;-80
2024/01/26 06:12:02;;;;;;;14.17;5.60;;;10.00;99.90;;;;;;766318;183;26504;-78
2024/01/26 06:14:29;;;;;;;19.27;5.70;;;10.00;99.90;;;;;;766012;184;26563;-79
2024/01/26 06:16:56;;;;;;;19.30;5.83;;;10.00;99.90;;;;;;765533;184;26510;-80
2024/01/26 06:19:23;;;;;;;7.97;4.37;;;9.90;99.90;;;;;;766577;184;26570;-77
2024/01/26 06:21:51;;;;;;;10.70;4.77;;;10.00;99.90;;;;;;765445;184;26569;-80
2024/01/26 06:24:17;;;;;;;9.40;5.07;;;10.00;99.90;;;;;;764830;184;26572;-80
2024/01/26 06:26:44;;;;;;;7.87;5.07;;;9.90;99.90;;;;;;770973;183;27420;-77
2024/01/26 06:29:11;;;;;;;8.87;4.77;;;10.00;99.90;;;;;;785202;180;26486;-78
2024/01/26 06:31:38;;;;;;;7.77;5.00;;;10.00;99.90;;;;;;771005;184;27365;-81
2024/01/26 06:34:05;;;;;;;8.47;5.43;;;10.00;99.90;;;;;;770254;184;26548;-78
2024/01/26 06:36:32;;;;;;;9.57;6.00;;;10.00;99.90;;;;;;770039;184;26573;-77
2024/01/26 06:38:59;;;;;;;10.93;5.23;;;10.00;99.90;;;;;;768015;184;26566;-79
2024/01/26 06:41:25;;;;;;;10.80;5.03;;;10.00;99.90;;;;;;770323;184;26692;-79
2024/01/26 06:43:52;;;;;;;8.40;5.00;;;9.90;99.90;;;;;;770256;184;26505;-78
2024/01/26 06:46:21;;;;;;;10.50;5.40;;;10.00;99.90;;;;;;770295;184;27053;-78
2024/01/26 06:48:46;;;;;;;8.10;5.53;;;10.00;99.90;;;;;;775585;182;27072;-79
2024/01/26 06:51:12;;;;;;;8.83;5.70;;;10.00;99.90;;;;;;767979;185;26538;-79
2024/01/26 06:53:39;;;;;;;10.50;5.47;;;9.90;99.90;;;;;;768625;185;26484;-78
2024/01/26 06:56:06;;;;;;;8.30;4.90;;;9.90;99.90;;;;;;769080;186;26982;-79
2024/01/26 06:58:33;;;;;;;8.60;4.90;;;10.00;99.90;;;;;;770366;185;27059;-79
2024/01/26 07:01:00;;;;;;;8.07;5.03;;;10.00;99.90;;;;;;768095;184;27066;-79
2024/01/26 07:03:26;;;;;;;9.77;5.27;;;10.00;99.90;;;;;;763301;184;26491;-78
2024/01/26 07:05:53;;;;;;;9.40;5.43;;;10.00;99.90;;;;;;765393;184;26495;-78
2024/01/26 07:08:20;;;;;;;11.10;6.00;;;10.10;99.90;;;;;;763654;184;28106;-79
2024/01/26 07:10:46;;;;;;;11.77;7.33;;;10.10;99.90;;;;;;763536;184;27051;-78
2024/01/26 07:13:13;;;;;;;8.23;5.47;;;10.20;99.90;;;;;;768845;184;26479;-78
2024/01/26 07:15:40;;;;;;;8.70;5.90;;;10.20;99.90;;;;;;769231;184;27235;-79
2024/01/26 07:18:06;;;;;;;14.03;6.87;;;10.20;99.90;;;;;;769972;184;26487;-79
2024/01/26 07:20:33;;;;;;;10.83;6.03;;;10.20;99.90;;;;;;764294;184;26488;-78
2024/01/26 07:23:00;;;;;;;9.60;5.97;;;10.20;99.90;;;;;;765859;184;27066;-78
2024/01/26 07:25:27;;;;;;;10.67;6.73;;;10.10;99.90;;;;;;762901;185;26485;-80
2024/01/26 07:27:53;;;;;;;8.90;5.80;;;10.20;99.90;;;;;;770135;183;27035;-79
2024/01/26 07:30:20;;;;;;;13.47;6.07;;;10.20;99.90;;;;;;766978;184;26575;-78
2024/01/26 07:32:47;;;;;;;13.53;6.50;;;10.20;99.90;;;;;;767710;184;26566;-76
2024/01/26 07:35:14;;;;;;;12.70;6.80;;;10.20;99.90;;;;;;770339;184;26478;-79
2024/01/26 07:37:40;;;;;;;16.17;7.53;;;10.20;99.90;;;;;;764537;184;26509;-81
2024/01/26 07:40:08;;;;;;;12.47;7.93;;;10.10;99.90;;;;;;756041;188;26566;-83
2024/01/26 07:42:34;;;;;;;15.43;8.30;;;10.20;99.90;;;;;;768630;185;26479;-82
2024/01/26 07:45:01;;;;;;;12.73;6.70;;;10.20;99.90;;;;;;771894;185;26478;-82
2024/01/26 07:47:28;;;;;;;12.77;6.80;;;10.20;99.90;;;;;;767579;185;26547;-84
2024/01/26 07:49:55;;;;;;;13.37;6.53;;;10.40;99.90;;;;;;768943;185;26510;-83
2024/01/26 07:52:22;;;;;;;16.30;8.13;;;10.30;99.90;;;;;;768543;185;26515;-81
2024/01/26 07:54:48;;;;;;;12.07;6.90;;;10.40;99.90;;;;;;768075;184;26467;-82
2024/01/26 07:57:15;;;;;;;11.97;7.17;;;10.40;99.90;;;;;;774671;184;26475;-83
2024/01/26 07:59:42;;;;;;;14.60;7.90;;;10.40;99.90;;;;;;767606;184;26519;-80
2024/01/26 08:02:08;;;;;;;15.33;7.43;;;10.40;99.90;;;;;;768280;184;26477;-79
2024/01/26 08:04:35;;;;;;;15.47;8.23;;;10.40;99.90;;;;;;772800;184;26491;-79
2024/01/26 08:07:02;;;;;;;15.50;7.60;;;10.40;99.90;;;;;;768284;184;26503;-79
2024/01/26 08:09:29;;;;;;;16.60;8.73;;;10.50;99.90;;;;;;765674;184;26547;-79
2024/01/26 08:11:56;;;;;;;16.67;7.67;;;10.50;99.90;;;;;;766877;184;26654;-80
2024/01/26 08:14:23;;;;;;;11.73;6.97;;;10.60;99.90;;;;;;767791;184;26473;-80
2024/01/26 08:16:49;;;;;;;17.23;7.60;;;10.60;99.90;;;;;;764339;184;26538;-81
2024/01/26 08:19:16;;;;;;;19.80;9.40;;;10.70;99.90;;;;;;762410;184;26522;-78
2024/01/26 08:21:43;;;;;;;16.93;8.37;;;10.70;99.90;;;;;;769227;184;26507;-81
2024/01/26 08:24:09;;;;;;;13.67;6.93;;;10.80;99.90;;;;;;764509;184;26500;-82
2024/01/26 08:26:36;;;;;;;12.07;7.10;;;10.70;99.90;;;;;;769453;184;26486;-82
2024/01/26 08:29:03;;;;;;;12.50;7.83;;;10.80;99.90;;;;;;769655;184;26505;-82
2024/01/26 08:31:30;;;;;;;16.33;7.83;;;10.80;99.90;;;;;;763446;184;26655;-82
2024/01/26 08:33:56;;;;;;;10.50;6.37;;;10.80;99.90;;;;;;771468;182;26546;-82
2024/01/26 08:36:23;;;;;;;11.77;6.97;;;10.80;99.90;;;;;;766453;184;26498;-79
2024/01/26 08:38:53;;;;;;;8.80;5.70;;;10.80;99.90;;;;;;768130;185;26585;-83
2024/01/26 08:41:17;;;;;;;7.33;5.13;;;10.80;99.90;;;;;;762337;184;26492;-82
2024/01/26 08:43:44;;;;;;;9.50;5.83;;;10.90;99.90;;;;;;765786;184;26559;-81
2024/01/26 08:46:11;;;;;;;9.37;7.00;;;10.90;99.90;;;;;;767975;184;27082;-80
2024/01/26 08:48:37;;;;;;;10.30;6.60;;;10.80;99.90;;;;;;766367;183;26492;-82
2024/01/26 08:51:04;;;;;;;9.37;6.50;;;10.90;99.90;;;;;;768456;185;26476;-80
2024/01/26 08:53:31;;;;;;;12.40;7.07;;;10.90;99.90;;;;;;764433;184;26507;-82
2024/01/26 08:55:58;;;;;;;12.00;6.73;;;10.90;99.90;;;;;;768715;184;26476;-82
2024/01/26 08:58:24;;;;;;;12.33;7.13;;;10.90;99.90;;;;;;769351;184;27059;-81
2024/01/26 09:00:51;;;;;;;13.27;6.83;;;11.00;99.90;;;;;;764628;184;27007;-82
2024/01/26 09:03:18;;;;;;;11.83;7.70;;;11.00;99.90;;;;;;771133;184;26478;-82
2024/01/26 09:05:45;;;;;;;15.00;6.60;;;11.00;99.90;;;;;;767710;184;27098;-82
2024/01/26 09:08:12;;;;;;;7.63;4.90;;;11.10;99.90;;;;;;765657;184;27073;-82
2024/01/26 09:10:39;;;;;;;10.53;4.60;;;11.10;99.90;;;;;;775036;184;26495;-83
2024/01/26 09:13:07;;;;;;;7.33;4.47;;;11.20;99.90;;;;;;775225;184;27517;-81
2024/01/26 09:15:32;;;;;;;4.20;3.33;;;11.20;99.90;;;;;;772008;184;26481;-82
2024/01/26 09:18:00;;;;;;;4.67;2.73;;;11.20;99.90;;;;;;769805;184;26849;-82
2024/01/26 09:20:26;;;;;;;6.13;4.00;;;11.30;99.90;;;;;;767149;184;26513;-82
2024/01/26 09:22:52;;;;;;;7.87;5.30;;;11.30;99.90;;;;;;766444;185;27050;-83
2024/01/26 09:25:20;;;;;;;23.07;9.30;;;11.30;99.90;;;;;;767023;184;26490;-80
2024/01/26 09:27:47;;;;;;;58.13;26.83;;;11.30;99.90;;;;;;772543;184;26504;-81
2024/01/26 09:30:14;;;;;;;9.87;5.83;;;11.20;99.90;;;;;;766031;185;26475;-79
2024/01/26 09:32:40;;;;;;;24.70;11.93;;;11.40;99.90;;;;;;775016;184;26549;-84
2024/01/26 09:35:09;;;;;;;16.43;6.50;;;11.40;99.90;;;;;;773018;184;26514;-83
2024/01/26 09:37:34;;;;;;;13.30;7.70;;;11.40;99.90;;;;;;774735;184;26495;-82
2024/01/26 09:40:01;;;;;;;6.40;3.47;;;11.40;99.90;;;;;;770326;183;26508;-82
2024/01/26 09:42:27;;;;;;;8.63;4.20;;;11.60;99.90;;;;;;773820;185;26478;-81
2024/01/26 09:44:55;;;;;;;7.07;4.10;;;11.60;99.90;;;;;;766284;183;26470;-84
2024/01/26 09:47:21;;;;;;;5.23;2.90;;;11.60;99.90;;;;;;775687;184;26492;-85
2024/01/26 09:49:52;;;;;;;4.07;3.20;;;11.70;99.90;;;;;;768459;185;26469;-84
2024/01/26 09:52:19;;;;;;;5.13;3.70;;;11.70;99.90;;;;;;771385;184;26531;-84
2024/01/26 09:54:46;;;;;;;4.10;3.30;;;11.80;99.90;;;;;;766406;184;26473;-85
2024/01/26 09:57:12;;;;;;;5.63;3.83;;;11.80;99.90;;;;;;773447;183;26628;-83
2024/01/26 09:59:39;;;;;;;5.50;3.47;;;11.80;99.90;;;;;;769038;184;26473;-81
2024/01/26 10:02:06;;;;;;;21.23;11.10;;;12.00;99.90;;;;;;771025;183;26493;-85
2024/01/26 10:04:33;;;;;;;11.37;7.60;;;12.00;99.90;;;;;;768652;184;26521;-79
2024/01/26 10:07:00;;;;;;;6.50;4.43;;;12.00;99.90;;;;;;772638;183;27077;-80
2024/01/26 10:09:27;;;;;;;4.70;3.67;;;12.00;99.90;;;;;;786475;180;26495;-78
2024/01/26 10:11:53;;;;;;;3.87;3.17;;;12.00;99.90;;;;;;787677;180;26452;-79
2024/01/26 10:14:20;;;;;;;5.63;3.27;;;12.00;99.90;;;;;;785597;178;26499;-80
2024/01/26 10:16:55;;;;;;;3.20;2.90;;;12.00;99.90;;;;;;775608;184;26479;-81
2024/01/26 10:19:25;;;;;;;4.30;2.97;;;12.00;99.90;;;;;;773159;184;26628;-78
2024/01/26 10:21:51;;;;;;;6.60;4.43;;;12.00;99.90;;;;;;781536;180;26450;-81
2024/01/26 10:24:17;;;;;;;6.97;5.33;;;12.00;99.90;;;;;;779283;181;27038;-81
2024/01/26 10:26:44;;;;;;;5.93;4.10;;;12.00;99.90;;;;;;775711;182;26467;-78
2024/01/26 10:29:12;;;;;;;5.20;4.70;;;12.00;99.90;;;;;;761926;184;26599;-81
2024/01/26 10:31:40;;;;;;;8.30;4.20;;;12.10;99.90;;;;;;763600;184;27029;-80
2024/01/26 10:34:05;;;;;;;8.57;4.90;;;12.20;99.90;;;;;;763069;184;27055;-79
2024/01/26 10:36:31;;;;;;;7.10;5.30;;;12.20;99.90;;;;;;761070;184;27024;-80
2024/01/26 10:38:58;;;;;;;14.50;6.93;;;12.20;99.90;;;;;;759146;185;26680;-82
2024/01/26 10:41:25;;;;;;;15.10;8.63;;;12.20;99.90;;;;;;765114;184;26491;-79
2024/01/26 10:43:55;;;;;;;6.00;5.40;;;12.20;99.90;;;;;;767290;184;26532;-77
2024/01/26 10:46:18;;;;;;;10.50;7.77;;;12.10;99.90;;;;;;764877;184;26504;-78
2024/01/26 10:48:45;;;;;;;15.23;8.73;;;12.20;99.90;;;;;;765385;184;26504;-78
2024/01/26 10:51:12;;;;;;;9.90;6.50;;;12.30;99.90;;;;;;765904;184;27094;-77
2024/01/26 10:53:38;;;;;;;13.70;7.73;;;12.40;99.90;;;;;;766158;184;26511;-80
2024/01/26 10:56:05;;;;;;;10.50;6.13;;;12.30;99.90;;;;;;768100;185;27041;-81
2024/01/26 10:58:32;;;;;;;28.87;14.20;;;12.30;99.90;;;;;;762148;187;27059;-79
2024/01/26 11:00:59;;;;;;;9.00;5.23;;;12.30;99.90;;;;;;772893;184;26633;-79
2024/01/26 11:03:25;;;;;;;14.57;6.83;;;12.30;99.90;;;;;;766984;184;26540;-81
2024/01/26 11:05:52;;;;;;;20.73;10.20;;;12.20;99.90;;;;;;768235;183;26497;-79
2024/01/26 11:08:22;;;;;;;172.73;60.87;;;12.20;99.90;;;;;;777042;170;26507;-77
2024/01/26 11:10:50;;;;;;;79.43;27.27;;;12.20;99.90;;;;;;777298;182;26563;-77
2024/01/26 11:13:15;;;;;;;166.27;56.23;;;12.00;99.90;;;;;;772879;184;26549;-78
2024/01/26 11:15:43;;;;;;;29.33;14.43;;;12.00;99.90;;;;;;775028;182;26500;-78
2024/01/26 11:18:08;;;;;;;9.30;4.57;;;11.90;99.90;;;;;;772819;181;26535;-80
2024/01/26 11:20:35;;;;;;;6.13;3.63;;;11.90;99.90;;;;;;779904;182;27006;-77
2024/01/26 11:23:06;;;;;;;9.40;3.60;;;11.70;99.90;;;;;;765132;187;26531;-79
2024/01/26 11:25:34;;;;;;;12.87;6.70;;;11.60;99.90;;;;;;765416;187;26594;-79
2024/01/26 11:28:01;;;;;;;5.37;2.97;;;11.40;99.90;;;;;;760346;187;26507;-82
2024/01/26 11:30:28;;;;;;;7.03;3.33;;;11.20;99.90;;;;;;763821;187;26533;-80
2024/01/26 11:32:54;;;;;;;3.00;2.10;;;11.10;99.90;;;;;;764324;187;26495;-79
2024/01/26 11:35:21;;;;;;;10.70;3.90;;;11.00;99.10;;;;;;757478;187;26475;-79
2024/01/26 11:37:49;;;;;;;13.67;2.80;;;10.90;98.90;;;;;;757991;187;26569;-78
2024/01/26 11:40:15;;;;;;;6.33;2.77;;;10.90;98.80;;;;;;788143;180;26443;-76
2024/01/26 11:42:42;;;;;;;12.53;2.83;;;10.80;99.50;;;;;;760653;184;26502;-80
2024/01/26 11:45:12;;;;;;;11.23;3.47;;;10.80;99.10;;;;;;775856;185;26470;-79
2024/01/26 11:47:40;;;;;;;20.93;3.30;;;10.80;99.60;;;;;;766139;184;26441;-81
2024/01/26 11:50:08;;;;;;;9.30;3.33;;;10.80;98.60;;;;;;767384;181;26496;-79
2024/01/26 11:52:35;;;;;;;11.63;3.13;;;10.80;98.80;;;;;;753823;187;26471;-80
2024/01/26 11:55:02;;;;;;;14.90;4.27;;;10.80;99.20;;;;;;766099;185;26620;-79
2024/01/26 11:57:30;;;;;;;9.83;3.03;;;10.80;98.20;;;;;;758461;187;26532;-79
2024/01/26 11:59:58;;;;;;;11.10;2.60;;;10.80;98.00;;;;;;764226;187;27116;-80
2024/01/26 12:02:25;;;;;;;10.03;2.77;;;10.90;97.50;;;;;;767872;187;27069;-79
2024/01/26 12:04:52;;;;;;;13.87;3.33;;;10.90;97.40;;;;;;767806;187;26547;-78
2024/01/26 12:07:18;;;;;;;14.70;3.03;;;10.90;97.30;;;;;;764092;187;26494;-79
2024/01/26 12:09:45;;;;;;;7.33;2.90;;;10.80;97.70;;;;;;766021;185;26688;-79
2024/01/26 12:12:12;;;;;;;14.60;3.70;;;10.80;97.00;;;;;;759951;187;27286;-78
2024/01/26 12:14:38;;;;;;;8.73;3.60;;;10.80;96.50;;;;;;768875;187;26507;-78
2024/01/26 12:17:05;;;;;;;10.80;2.57;;;10.80;95.40;;;;;;765046;187;26630;-79
2024/01/26 12:19:31;;;;;;;7.87;3.17;;;10.80;95.10;;;;;;759819;187;26493;-77
2024/01/26 12:21:59;;;;;;;13.20;4.93;;;10.90;92.40;;;;;;751057;191;26484;-78
2024/01/26 12:24:25;;;;;;;6.20;1.90;;;10.90;91.20;;;;;;751565;191;26512;-79
2024/01/26 12:26:52;;;;;;;7.10;2.40;;;10.80;88.60;;;;;;751731;191;28129;-79
2024/01/26 12:29:19;;;;;;;10.23;3.00;;;10.70;91.20;;;;;;755888;187;26590;-78
2024/01/26 12:31:46;;;;;;;10.60;2.67;;;10.70;90.40;;;;;;767876;187;26517;-79
2024/01/26 12:34:13;;;;;;;10.93;2.13;;;10.60;90.00;;;;;;766970;187;26520;-78
2024/01/26 12:36:39;;;;;;;14.40;3.90;;;10.60;88.90;;;;;;766690;187;26548;-78
2024/01/26 12:39:06;;;;;;;12.83;3.83;;;11.30;90.10;;;;;;766794;185;26559;-78
2024/01/26 12:41:33;;;;;;;8.20;1.90;;;12.50;84.90;;;;;;766601;187;26501;-78
2024/01/26 12:43:59;;;;;;;8.90;3.40;;;12.70;79.30;;;;;;767772;187;26504;-78
2024/01/26 12:46:26;;;;;;;9.03;2.47;;;13.40;76.90;;;;;;763751;187;26497;-77
2024/01/26 12:48:52;;;;;;;10.67;4.93;;;14.30;70.70;;;;;;756991;184;27104;-78
2024/01/26 12:51:19;;;;;;;9.80;2.23;;;15.00;77.60;;;;;;761112;187;26502;-78
2024/01/26 12:53:46;;;;;;;39.93;13.13;;;14.90;64.90;;;;;;767392;184;27067;-77
2024/01/26 12:56:13;;;;;;;15.43;6.03;;;14.70;68.00;;;;;;765320;187;26494;-77
2024/01/26 12:58:39;;;;;;;11.93;3.93;;;14.80;64.90;;;;;;762566;186;26502;-79
2024/01/26 13:01:05;;;;;;;15.43;6.27;;;14.80;63.40;;;;;;762347;187;26519;-80
2024/01/26 13:03:32;;;;;;;10.73;4.13;;;14.90;63.10;;;;;;769320;187;26510;-79
2024/01/26 13:05:59;;;;;;;13.50;2.87;;;15.10;64.30;;;;;;770084;187;26489;-78
2024/01/26 13:08:25;;;;;;;6.57;2.07;;;15.60;59.20;;;;;;780455;184;26467;-77
2024/01/26 13:10:52;;;;;;;10.53;3.70;;;15.40;58.40;;;;;;780807;183;26601;-77
2024/01/26 13:13:20;;;;;;;9.33;2.30;;;15.50;60.30;;;;;;784771;180;26470;-77
2024/01/26 13:15:46;;;;;;;11.33;3.10;;;14.80;61.10;;;;;;793243;178;26479;-79
2024/01/26 13:18:13;;;;;;;6.13;1.90;;;14.90;63.60;;;;;;792914;182;26480;-78
2024/01/26 13:20:39;;;;;;;10.27;3.07;;;14.40;60.10;;;;;;789075;180;26439;-77
2024/01/26 13:23:06;;;;;;;13.67;3.57;;;14.80;63.20;;;;;;789613;178;26441;-78
2024/01/26 13:25:32;;;;;;;7.63;2.30;;;15.60;59.40;;;;;;792867;181;26458;-78
2024/01/26 13:27:59;;;;;;;6.20;2.23;;;13.90;61.10;;;;;;789989;181;26434;-80
2024/01/26 13:30:26;;;;;;;6.30;2.40;;;12.20;64.50;;;;;;781574;183;26446;-78
2024/01/26 13:32:52;;;;;;;8.37;2.60;;;12.60;61.40;;;;;;777089;185;26474;-79
2024/01/26 13:35:19;;;;;;;12.13;3.47;;;11.80;65.00;;;;;;778767;184;26524;-79